sensor_id;sensor_type;location;lat;lon;timestamp;P1;durP1;ratioP1;P2;durP2;ratioP2
73814;SDS011;62145;55.648;37.602;2023-08-20T00:02:23;19.88;;;13.57;;
73814;SDS011;62145;55.648;37.602;2023-08-20T00:04:51;22.57;;;13.87;;
73814;SDS011;62145;55.648;37.602;2023-08-20T00:07:18;20.25;;;12.98;;
73814;SDS011;62145;55.648;37.602;2023-08-20T00:09:44;19.33;;;13.32;;
73814;SDS011;62145;55.648;37.602;2023-08-20T00:12:10;22.10;;;13.90;;
73814;SDS011;62145;55.648;37.602;2023-08-20T00:17:25;22.42;;;13.88;;
73814;SDS011;62145;55.648;37.602;2023-08-20T00:19:56;21.58;;;13.27;;
73814;SDS011;62145;55.648;37.602;2023-08-20T00:22:24;22.35;;;13.75;;
73814;SDS011;62145;55.648;37.602;2023-08-20T00:24:53;20.17;;;13.27;;
73814;SDS011;62145;55.648;37.602;2023-08-20T00:27:20;19.47;;;13.60;;
73814;SDS011;62145;55.648;37.602;2023-08-20T00:29:46;19.42;;;13.38;;
73814;SDS011;62145;55.648;37.602;2023-08-20T00:32:14;21.20;;;12.95;;
73814;SDS011;62145;55.648;37.602;2023-08-20T00:34:40;21.17;;;13.48;;
73814;SDS011;62145;55.648;37.602;2023-08-20T00:37:06;21.45;;;14.23;;
73814;SDS011;62145;55.648;37.602;2023-08-20T00:39:32;24.23;;;13.17;;
73814;SDS011;62145;55.648;37.602;2023-08-20T00:41:58;20.17;;;13.77;;
73814;SDS011;62145;55.648;37.602;2023-08-20T00:44:24;21.52;;;13.73;;
73814;SDS011;62145;55.648;37.602;2023-08-20T00:46:50;23.17;;;13.57;;
73814;SDS011;62145;55.648;37.602;2023-08-20T00:49:17;20.70;;;13.07;;
73814;SDS011;62145;55.648;37.602;2023-08-20T00:51:44;20.27;;;13.48;;
73814;SDS011;62145;55.648;37.602;2023-08-20T00:54:10;21.60;;;13.98;;
73814;SDS011;62145;55.648;37.602;2023-08-20T00:56:37;19.77;;;13.27;;
73814;SDS011;62145;55.648;37.602;2023-08-20T00:59:04;20.37;;;12.37;;
73814;SDS011;62145;55.648;37.602;2023-08-20T01:01:31;19.90;;;12.88;;
73814;SDS011;62145;55.648;37.602;2023-08-20T01:03:57;20.17;;;13.48;;
73814;SDS011;62145;55.648;37.602;2023-08-20T01:09:43;20.13;;;12.83;;
73814;SDS011;62145;55.648;37.602;2023-08-20T01:12:17;20.65;;;13.30;;
73814;SDS011;62145;55.648;37.602;2023-08-20T01:14:45;20.27;;;13.57;;
73814;SDS011;62145;55.648;37.602;2023-08-20T01:17:11;21.55;;;13.88;;
73814;SDS011;62145;55.648;37.602;2023-08-20T01:19:37;22.03;;;13.47;;
73814;SDS011;62145;55.648;37.602;2023-08-20T01:27:39;21.42;;;13.73;;
73814;SDS011;62145;55.648;37.602;2023-08-20T01:30:16;21.88;;;13.02;;
73814;SDS011;62145;55.648;37.602;2023-08-20T01:32:44;21.60;;;13.17;;
73814;SDS011;62145;55.648;37.602;2023-08-20T01:35:11;22.85;;;13.90;;
73814;SDS011;62145;55.648;37.602;2023-08-20T01:37:39;21.10;;;13.63;;
73814;SDS011;62145;55.648;37.602;2023-08-20T01:40:06;21.20;;;13.18;;
73814;SDS011;62145;55.648;37.602;2023-08-20T01:42:36;23.92;;;13.77;;
73814;SDS011;62145;55.648;37.602;2023-08-20T01:45:03;20.03;;;13.53;;
73814;SDS011;62145;55.648;37.602;2023-08-20T01:47:34;23.70;;;13.70;;
73814;SDS011;62145;55.648;37.602;2023-08-20T01:50:01;24.77;;;14.25;;
73814;SDS011;62145;55.648;37.602;2023-08-20T01:52:30;22.92;;;13.88;;
73814;SDS011;62145;55.648;37.602;2023-08-20T01:54:57;21.95;;;13.50;;
73814;SDS011;62145;55.648;37.602;2023-08-20T01:57:26;19.80;;;13.30;;
73814;SDS011;62145;55.648;37.602;2023-08-20T01:59:51;21.15;;;14.32;;
73814;SDS011;62145;55.648;37.602;2023-08-20T02:02:18;22.13;;;14.18;;
73814;SDS011;62145;55.648;37.602;2023-08-20T02:04:44;21.08;;;13.55;;
73814;SDS011;62145;55.648;37.602;2023-08-20T02:07:10;19.80;;;13.43;;
73814;SDS011;62145;55.648;37.602;2023-08-20T02:09:38;21.15;;;14.05;;
73814;SDS011;62145;55.648;37.602;2023-08-20T02:12:04;21.67;;;14.43;;
73814;SDS011;62145;55.648;37.602;2023-08-20T02:14:32;21.85;;;14.80;;
73814;SDS011;62145;55.648;37.602;2023-08-20T02:17:01;26.52;;;14.30;;
73814;SDS011;62145;55.648;37.602;2023-08-20T02:19:28;20.57;;;14.63;;
73814;SDS011;62145;55.648;37.602;2023-08-20T02:21:53;23.02;;;14.98;;
73814;SDS011;62145;55.648;37.602;2023-08-20T02:24:19;22.55;;;14.52;;
73814;SDS011;62145;55.648;37.602;2023-08-20T02:26:46;23.40;;;15.13;;
73814;SDS011;62145;55.648;37.602;2023-08-20T02:29:12;23.65;;;15.45;;
73814;SDS011;62145;55.648;37.602;2023-08-20T02:31:38;25.77;;;16.38;;
73814;SDS011;62145;55.648;37.602;2023-08-20T02:34:04;26.17;;;16.77;;
73814;SDS011;62145;55.648;37.602;2023-08-20T02:36:29;24.20;;;16.70;;
73814;SDS011;62145;55.648;37.602;2023-08-20T02:38:55;27.50;;;17.38;;
73814;SDS011;62145;55.648;37.602;2023-08-20T02:41:21;28.93;;;17.80;;
73814;SDS011;62145;55.648;37.602;2023-08-20T02:43:47;28.17;;;17.80;;
73814;SDS011;62145;55.648;37.602;2023-08-20T02:46:13;26.85;;;16.65;;
73814;SDS011;62145;55.648;37.602;2023-08-20T02:48:40;26.15;;;17.38;;
73814;SDS011;62145;55.648;37.602;2023-08-20T02:51:06;27.20;;;17.23;;
73814;SDS011;62145;55.648;37.602;2023-08-20T02:53:32;28.03;;;17.87;;
73814;SDS011;62145;55.648;37.602;2023-08-20T02:55:59;27.00;;;17.88;;
73814;SDS011;62145;55.648;37.602;2023-08-20T02:58:26;26.77;;;17.58;;
73814;SDS011;62145;55.648;37.602;2023-08-20T03:00:52;29.15;;;17.92;;
73814;SDS011;62145;55.648;37.602;2023-08-20T03:03:19;25.60;;;16.93;;
73814;SDS011;62145;55.648;37.602;2023-08-20T03:05:45;28.88;;;17.27;;
73814;SDS011;62145;55.648;37.602;2023-08-20T03:08:16;28.55;;;17.70;;
73814;SDS011;62145;55.648;37.602;2023-08-20T03:10:44;28.27;;;18.05;;
73814;SDS011;62145;55.648;37.602;2023-08-20T03:13:10;25.13;;;17.23;;
73814;SDS011;62145;55.648;37.602;2023-08-20T03:15:36;29.20;;;17.20;;
73814;SDS011;62145;55.648;37.602;2023-08-20T03:18:02;28.15;;;17.15;;
73814;SDS011;62145;55.648;37.602;2023-08-20T03:20:29;24.30;;;16.73;;
73814;SDS011;62145;55.648;37.602;2023-08-20T03:22:57;23.85;;;16.88;;
73814;SDS011;62145;55.648;37.602;2023-08-20T03:25:23;24.35;;;16.65;;
73814;SDS011;62145;55.648;37.602;2023-08-20T03:27:49;28.17;;;17.13;;
73814;SDS011;62145;55.648;37.602;2023-08-20T03:30:17;21.60;;;14.90;;
73814;SDS011;62145;55.648;37.602;2023-08-20T03:32:44;19.92;;;14.35;;
73814;SDS011;62145;55.648;37.602;2023-08-20T03:35:10;21.13;;;13.73;;
73814;SDS011;62145;55.648;37.602;2023-08-20T03:37:37;16.75;;;11.40;;
73814;SDS011;62145;55.648;37.602;2023-08-20T03:40:03;18.10;;;11.67;;
73814;SDS011;62145;55.648;37.602;2023-08-20T03:42:31;19.10;;;12.50;;
73814;SDS011;62145;55.648;37.602;2023-08-20T03:44:58;19.67;;;13.40;;
73814;SDS011;62145;55.648;37.602;2023-08-20T03:47:24;22.05;;;13.30;;
73814;SDS011;62145;55.648;37.602;2023-08-20T03:50:02;20.85;;;13.18;;
73814;SDS011;62145;55.648;37.602;2023-08-20T03:52:34;21.80;;;12.97;;
73814;SDS011;62145;55.648;37.602;2023-08-20T03:55:00;19.80;;;13.02;;
73814;SDS011;62145;55.648;37.602;2023-08-20T03:57:29;22.55;;;14.18;;
73814;SDS011;62145;55.648;37.602;2023-08-20T03:59:57;23.08;;;14.85;;
73814;SDS011;62145;55.648;37.602;2023-08-20T04:02:24;23.90;;;15.65;;
73814;SDS011;62145;55.648;37.602;2023-08-20T04:04:52;23.53;;;15.67;;
73814;SDS011;62145;55.648;37.602;2023-08-20T04:07:19;27.08;;;17.23;;
73814;SDS011;62145;55.648;37.602;2023-08-20T04:09:51;26.27;;;16.50;;
73814;SDS011;62145;55.648;37.602;2023-08-20T04:12:18;26.70;;;17.33;;
73814;SDS011;62145;55.648;37.602;2023-08-20T04:14:49;28.13;;;17.20;;
73814;SDS011;62145;55.648;37.602;2023-08-20T04:17:18;26.57;;;16.77;;
73814;SDS011;62145;55.648;37.602;2023-08-20T04:19:44;25.95;;;15.60;;
73814;SDS011;62145;55.648;37.602;2023-08-20T04:22:11;25.05;;;15.82;;
73814;SDS011;62145;55.648;37.602;2023-08-20T04:24:40;23.52;;;15.23;;
73814;SDS011;62145;55.648;37.602;2023-08-20T04:27:08;24.00;;;14.43;;
73814;SDS011;62145;55.648;37.602;2023-08-20T04:29:38;24.88;;;15.07;;
73814;SDS011;62145;55.648;37.602;2023-08-20T04:32:05;28.35;;;16.63;;
73814;SDS011;62145;55.648;37.602;2023-08-20T04:34:32;28.00;;;16.27;;
73814;SDS011;62145;55.648;37.602;2023-08-20T04:36:58;27.45;;;16.02;;
73814;SDS011;62145;55.648;37.602;2023-08-20T04:39:28;26.57;;;15.70;;
73814;SDS011;62145;55.648;37.602;2023-08-20T04:41:56;28.17;;;16.23;;
73814;SDS011;62145;55.648;37.602;2023-08-20T04:44:24;28.20;;;15.32;;
73814;SDS011;62145;55.648;37.602;2023-08-20T04:46:53;27.05;;;16.95;;
73814;SDS011;62145;55.648;37.602;2023-08-20T04:49:19;24.55;;;14.68;;
73814;SDS011;62145;55.648;37.602;2023-08-20T04:51:46;25.33;;;15.80;;
73814;SDS011;62145;55.648;37.602;2023-08-20T04:54:16;25.88;;;16.15;;
73814;SDS011;62145;55.648;37.602;2023-08-20T04:56:42;23.58;;;14.07;;
73814;SDS011;62145;55.648;37.602;2023-08-20T04:59:09;25.02;;;15.38;;
73814;SDS011;62145;55.648;37.602;2023-08-20T05:02:00;27.17;;;15.85;;
73814;SDS011;62145;55.648;37.602;2023-08-20T05:04:40;23.70;;;14.80;;
73814;SDS011;62145;55.648;37.602;2023-08-20T05:07:13;24.17;;;15.77;;
73814;SDS011;62145;55.648;37.602;2023-08-20T05:09:40;27.13;;;15.80;;
73814;SDS011;62145;55.648;37.602;2023-08-20T05:12:07;25.30;;;15.60;;
73814;SDS011;62145;55.648;37.602;2023-08-20T05:14:34;22.60;;;14.63;;
73814;SDS011;62145;55.648;37.602;2023-08-20T05:17:02;24.93;;;15.53;;
73814;SDS011;62145;55.648;37.602;2023-08-20T05:19:29;22.27;;;14.52;;
73814;SDS011;62145;55.648;37.602;2023-08-20T05:21:58;20.85;;;14.02;;
73814;SDS011;62145;55.648;37.602;2023-08-20T05:24:30;21.38;;;13.68;;
73814;SDS011;62145;55.648;37.602;2023-08-20T05:29:37;19.93;;;12.87;;
73814;SDS011;62145;55.648;37.602;2023-08-20T05:32:07;19.00;;;12.57;;
73814;SDS011;62145;55.648;37.602;2023-08-20T05:34:36;18.25;;;12.35;;
73814;SDS011;62145;55.648;37.602;2023-08-20T05:37:04;19.33;;;12.07;;
73814;SDS011;62145;55.648;37.602;2023-08-20T05:39:36;18.38;;;11.60;;
73814;SDS011;62145;55.648;37.602;2023-08-20T05:42:04;18.17;;;12.00;;
73814;SDS011;62145;55.648;37.602;2023-08-20T05:44:30;20.15;;;11.32;;
73814;SDS011;62145;55.648;37.602;2023-08-20T05:47:00;19.58;;;11.75;;
73814;SDS011;62145;55.648;37.602;2023-08-20T05:49:28;17.70;;;12.15;;
73814;SDS011;62145;55.648;37.602;2023-08-20T05:52:15;16.05;;;11.48;;
73814;SDS011;62145;55.648;37.602;2023-08-20T05:54:43;16.23;;;11.30;;
73814;SDS011;62145;55.648;37.602;2023-08-20T05:57:10;16.48;;;11.02;;
73814;SDS011;62145;55.648;37.602;2023-08-20T05:59:39;21.10;;;11.45;;
73814;SDS011;62145;55.648;37.602;2023-08-20T06:02:05;16.60;;;11.05;;
73814;SDS011;62145;55.648;37.602;2023-08-20T06:04:37;16.67;;;11.17;;
73814;SDS011;62145;55.648;37.602;2023-08-20T06:07:06;17.88;;;11.40;;
73814;SDS011;62145;55.648;37.602;2023-08-20T06:09:31;16.70;;;11.45;;
73814;SDS011;62145;55.648;37.602;2023-08-20T06:11:58;17.05;;;11.10;;
73814;SDS011;62145;55.648;37.602;2023-08-20T06:14:27;17.30;;;10.43;;
73814;SDS011;62145;55.648;37.602;2023-08-20T06:16:54;15.10;;;10.03;;
73814;SDS011;62145;55.648;37.602;2023-08-20T06:19:24;14.07;;;10.07;;
73814;SDS011;62145;55.648;37.602;2023-08-20T06:21:55;14.77;;;9.90;;
73814;SDS011;62145;55.648;37.602;2023-08-20T06:24:21;13.38;;;10.13;;
73814;SDS011;62145;55.648;37.602;2023-08-20T06:26:50;14.55;;;10.60;;
73814;SDS011;62145;55.648;37.602;2023-08-20T06:29:19;13.73;;;10.20;;
73814;SDS011;62145;55.648;37.602;2023-08-20T06:31:47;15.25;;;10.00;;
73814;SDS011;62145;55.648;37.602;2023-08-20T06:34:16;12.07;;;9.07;;
73814;SDS011;62145;55.648;37.602;2023-08-20T06:36:42;13.52;;;9.90;;
73814;SDS011;62145;55.648;37.602;2023-08-20T06:39:10;19.48;;;10.02;;
73814;SDS011;62145;55.648;37.602;2023-08-20T06:41:41;12.97;;;10.27;;
73814;SDS011;62145;55.648;37.602;2023-08-20T06:44:19;13.40;;;9.68;;
73814;SDS011;62145;55.648;37.602;2023-08-20T06:46:48;12.65;;;9.35;;
73814;SDS011;62145;55.648;37.602;2023-08-20T06:49:14;12.57;;;9.05;;
73814;SDS011;62145;55.648;37.602;2023-08-20T06:51:42;12.35;;;8.20;;
73814;SDS011;62145;55.648;37.602;2023-08-20T06:54:11;13.67;;;8.20;;
73814;SDS011;62145;55.648;37.602;2023-08-20T06:56:41;11.20;;;8.48;;
73814;SDS011;62145;55.648;37.602;2023-08-20T06:59:08;11.13;;;8.57;;
73814;SDS011;62145;55.648;37.602;2023-08-20T07:01:35;12.20;;;7.97;;
73814;SDS011;62145;55.648;37.602;2023-08-20T07:04:02;14.43;;;8.63;;
73814;SDS011;62145;55.648;37.602;2023-08-20T07:06:29;10.13;;;7.63;;
73814;SDS011;62145;55.648;37.602;2023-08-20T07:08:55;11.63;;;7.68;;
73814;SDS011;62145;55.648;37.602;2023-08-20T07:11:39;9.85;;;7.35;;
73814;SDS011;62145;55.648;37.602;2023-08-20T07:14:08;9.98;;;6.95;;
73814;SDS011;62145;55.648;37.602;2023-08-20T07:16:39;7.93;;;6.80;;
73814;SDS011;62145;55.648;37.602;2023-08-20T07:19:06;10.27;;;7.28;;
73814;SDS011;62145;55.648;37.602;2023-08-20T07:21:32;8.75;;;6.88;;
73814;SDS011;62145;55.648;37.602;2023-08-20T07:23:58;9.07;;;6.80;;
73814;SDS011;62145;55.648;37.602;2023-08-20T07:26:25;12.40;;;6.70;;
73814;SDS011;62145;55.648;37.602;2023-08-20T07:28:52;10.63;;;7.20;;
73814;SDS011;62145;55.648;37.602;2023-08-20T07:31:28;11.68;;;7.43;;
73814;SDS011;62145;55.648;37.602;2023-08-20T07:33:57;12.75;;;7.28;;
73814;SDS011;62145;55.648;37.602;2023-08-20T07:36:24;11.80;;;7.07;;
73814;SDS011;62145;55.648;37.602;2023-08-20T07:38:53;11.10;;;7.87;;
73814;SDS011;62145;55.648;37.602;2023-08-20T07:41:19;9.68;;;6.90;;
73814;SDS011;62145;55.648;37.602;2023-08-20T07:43:46;9.60;;;6.95;;
73814;SDS011;62145;55.648;37.602;2023-08-20T07:46:14;9.82;;;7.50;;
73814;SDS011;62145;55.648;37.602;2023-08-20T07:48:44;8.65;;;6.90;;
73814;SDS011;62145;55.648;37.602;2023-08-20T07:51:13;14.30;;;7.70;;
73814;SDS011;62145;55.648;37.602;2023-08-20T07:53:40;9.07;;;7.55;;
73814;SDS011;62145;55.648;37.602;2023-08-20T07:56:10;9.65;;;6.68;;
73814;SDS011;62145;55.648;37.602;2023-08-20T07:58:36;7.50;;;6.47;;
73814;SDS011;62145;55.648;37.602;2023-08-20T08:01:02;9.60;;;6.63;;
73814;SDS011;62145;55.648;37.602;2023-08-20T08:03:28;9.37;;;6.47;;
73814;SDS011;62145;55.648;37.602;2023-08-20T08:05:54;8.63;;;7.07;;
73814;SDS011;62145;55.648;37.602;2023-08-20T08:08:20;8.23;;;6.20;;
73814;SDS011;62145;55.648;37.602;2023-08-20T08:10:47;10.32;;;6.93;;
73814;SDS011;62145;55.648;37.602;2023-08-20T08:13:13;12.63;;;7.23;;
73814;SDS011;62145;55.648;37.602;2023-08-20T08:15:41;10.75;;;6.85;;
73814;SDS011;62145;55.648;37.602;2023-08-20T08:18:07;11.15;;;7.13;;
73814;SDS011;62145;55.648;37.602;2023-08-20T08:20:34;9.98;;;6.70;;
73814;SDS011;62145;55.648;37.602;2023-08-20T08:23:00;11.52;;;6.90;;
73814;SDS011;62145;55.648;37.602;2023-08-20T08:25:26;7.53;;;6.30;;
73814;SDS011;62145;55.648;37.602;2023-08-20T08:27:52;9.68;;;6.75;;
73814;SDS011;62145;55.648;37.602;2023-08-20T08:30:18;9.65;;;6.85;;
73814;SDS011;62145;55.648;37.602;2023-08-20T08:32:44;9.40;;;6.95;;
73814;SDS011;62145;55.648;37.602;2023-08-20T08:35:10;8.37;;;6.57;;
73814;SDS011;62145;55.648;37.602;2023-08-20T08:37:36;8.57;;;6.70;;
73814;SDS011;62145;55.648;37.602;2023-08-20T08:40:03;8.85;;;7.20;;
73814;SDS011;62145;55.648;37.602;2023-08-20T08:42:32;8.00;;;6.72;;
73814;SDS011;62145;55.648;37.602;2023-08-20T08:45:02;10.45;;;7.28;;
73814;SDS011;62145;55.648;37.602;2023-08-20T08:47:31;9.40;;;6.67;;
73814;SDS011;62145;55.648;37.602;2023-08-20T08:49:57;8.52;;;6.55;;
73814;SDS011;62145;55.648;37.602;2023-08-20T08:52:24;9.38;;;6.65;;
73814;SDS011;62145;55.648;37.602;2023-08-20T08:54:50;8.00;;;6.18;;
73814;SDS011;62145;55.648;37.602;2023-08-20T08:57:17;9.25;;;6.35;;
73814;SDS011;62145;55.648;37.602;2023-08-20T08:59:43;9.30;;;6.60;;
73814;SDS011;62145;55.648;37.602;2023-08-20T09:02:09;11.70;;;6.95;;
73814;SDS011;62145;55.648;37.602;2023-08-20T09:04:39;7.75;;;6.35;;
73814;SDS011;62145;55.648;37.602;2023-08-20T09:07:09;10.35;;;6.20;;
73814;SDS011;62145;55.648;37.602;2023-08-20T09:09:37;10.43;;;5.88;;
73814;SDS011;62145;55.648;37.602;2023-08-20T09:12:24;8.27;;;5.80;;
73814;SDS011;62145;55.648;37.602;2023-08-20T09:14:50;6.95;;;5.53;;
73814;SDS011;62145;55.648;37.602;2023-08-20T09:17:17;7.65;;;4.70;;
73814;SDS011;62145;55.648;37.602;2023-08-20T09:19:45;6.88;;;4.82;;
73814;SDS011;62145;55.648;37.602;2023-08-20T09:22:19;8.20;;;5.05;;
73814;SDS011;62145;55.648;37.602;2023-08-20T09:24:56;9.67;;;5.90;;
73814;SDS011;62145;55.648;37.602;2023-08-20T09:27:23;8.75;;;5.80;;
73814;SDS011;62145;55.648;37.602;2023-08-20T09:29:50;8.85;;;6.00;;
73814;SDS011;62145;55.648;37.602;2023-08-20T09:34:43;9.23;;;5.90;;
73814;SDS011;62145;55.648;37.602;2023-08-20T09:37:10;9.70;;;5.93;;
73814;SDS011;62145;55.648;37.602;2023-08-20T09:39:37;8.77;;;5.60;;
73814;SDS011;62145;55.648;37.602;2023-08-20T09:42:04;8.18;;;5.05;;
73814;SDS011;62145;55.648;37.602;2023-08-20T09:44:34;7.78;;;5.47;;
73814;SDS011;62145;55.648;37.602;2023-08-20T09:47:11;8.75;;;5.32;;
73814;SDS011;62145;55.648;37.602;2023-08-20T09:49:39;8.93;;;5.37;;
73814;SDS011;62145;55.648;37.602;2023-08-20T09:52:06;7.35;;;4.07;;
73814;SDS011;62145;55.648;37.602;2023-08-20T09:54:59;7.88;;;4.90;;
73814;SDS011;62145;55.648;37.602;2023-08-20T09:59:59;9.35;;;4.90;;
73814;SDS011;62145;55.648;37.602;2023-08-20T10:02:26;7.00;;;4.40;;
73814;SDS011;62145;55.648;37.602;2023-08-20T10:04:52;6.57;;;4.70;;
73814;SDS011;62145;55.648;37.602;2023-08-20T10:07:19;7.47;;;4.47;;
73814;SDS011;62145;55.648;37.602;2023-08-20T10:09:45;7.63;;;4.95;;
73814;SDS011;62145;55.648;37.602;2023-08-20T10:12:15;7.57;;;4.60;;
73814;SDS011;62145;55.648;37.602;2023-08-20T10:14:41;8.93;;;5.40;;
73814;SDS011;62145;55.648;37.602;2023-08-20T10:17:08;7.63;;;4.78;;
73814;SDS011;62145;55.648;37.602;2023-08-20T10:19:37;6.97;;;5.10;;
73814;SDS011;62145;55.648;37.602;2023-08-20T10:22:06;7.90;;;5.13;;
73814;SDS011;62145;55.648;37.602;2023-08-20T10:25:06;7.07;;;5.10;;
73814;SDS011;62145;55.648;37.602;2023-08-20T10:27:34;9.47;;;6.43;;
73814;SDS011;62145;55.648;37.602;2023-08-20T10:30:01;6.50;;;4.72;;
73814;SDS011;62145;55.648;37.602;2023-08-20T10:32:49;8.13;;;5.15;;
73814;SDS011;62145;55.648;37.602;2023-08-20T10:35:18;7.22;;;5.10;;
73814;SDS011;62145;55.648;37.602;2023-08-20T10:38:01;6.82;;;5.05;;
73814;SDS011;62145;55.648;37.602;2023-08-20T10:40:47;6.90;;;4.80;;
73814;SDS011;62145;55.648;37.602;2023-08-20T10:43:46;6.70;;;4.80;;
73814;SDS011;62145;55.648;37.602;2023-08-20T10:46:17;6.47;;;4.85;;
73814;SDS011;62145;55.648;37.602;2023-08-20T10:51:15;8.23;;;6.40;;
73814;SDS011;62145;55.648;37.602;2023-08-20T10:54:03;7.20;;;5.30;;
73814;SDS011;62145;55.648;37.602;2023-08-20T10:56:53;7.97;;;5.60;;
73814;SDS011;62145;55.648;37.602;2023-08-20T10:59:21;8.23;;;5.43;;
73814;SDS011;62145;55.648;37.602;2023-08-20T11:01:49;10.13;;;6.10;;
73814;SDS011;62145;55.648;37.602;2023-08-20T11:04:34;8.52;;;5.78;;
73814;SDS011;62145;55.648;37.602;2023-08-20T11:07:00;7.27;;;5.43;;
73814;SDS011;62145;55.648;37.602;2023-08-20T11:09:28;7.40;;;5.43;;
73814;SDS011;62145;55.648;37.602;2023-08-20T11:11:55;8.23;;;5.78;;
73814;SDS011;62145;55.648;37.602;2023-08-20T11:14:22;10.43;;;6.25;;
73814;SDS011;62145;55.648;37.602;2023-08-20T11:16:48;7.90;;;5.60;;
73814;SDS011;62145;55.648;37.602;2023-08-20T11:19:18;9.90;;;6.05;;
73814;SDS011;62145;55.648;37.602;2023-08-20T11:21:48;12.15;;;6.60;;
73814;SDS011;62145;55.648;37.602;2023-08-20T11:24:14;10.20;;;6.68;;
73814;SDS011;62145;55.648;37.602;2023-08-20T11:26:42;9.20;;;6.55;;
73814;SDS011;62145;55.648;37.602;2023-08-20T11:29:09;10.73;;;7.00;;
73814;SDS011;62145;55.648;37.602;2023-08-20T11:31:36;10.68;;;6.88;;
73814;SDS011;62145;55.648;37.602;2023-08-20T11:34:02;10.88;;;6.80;;
73814;SDS011;62145;55.648;37.602;2023-08-20T11:36:29;9.35;;;6.13;;
73814;SDS011;62145;55.648;37.602;2023-08-20T11:38:55;11.40;;;6.50;;
73814;SDS011;62145;55.648;37.602;2023-08-20T11:41:21;11.17;;;7.43;;
73814;SDS011;62145;55.648;37.602;2023-08-20T11:43:48;10.70;;;6.60;;
73814;SDS011;62145;55.648;37.602;2023-08-20T11:46:15;10.88;;;8.00;;
73814;SDS011;62145;55.648;37.602;2023-08-20T11:49:02;8.75;;;6.57;;
73814;SDS011;62145;55.648;37.602;2023-08-20T11:54:04;14.00;;;6.93;;
73814;SDS011;62145;55.648;37.602;2023-08-20T11:56:34;12.27;;;7.43;;
73814;SDS011;62145;55.648;37.602;2023-08-20T11:59:01;9.35;;;4.90;;
73814;SDS011;62145;55.648;37.602;2023-08-20T12:01:31;15.00;;;4.40;;
73814;SDS011;62145;55.648;37.602;2023-08-20T12:04:05;7.82;;;3.08;;
73814;SDS011;62145;55.648;37.602;2023-08-20T12:06:33;7.80;;;2.60;;
73814;SDS011;62145;55.648;37.602;2023-08-20T12:09:00;6.03;;;3.10;;
73814;SDS011;62145;55.648;37.602;2023-08-20T12:11:28;9.50;;;4.20;;
73814;SDS011;62145;55.648;37.602;2023-08-20T12:13:55;10.55;;;4.55;;
73814;SDS011;62145;55.648;37.602;2023-08-20T12:16:24;14.15;;;5.68;;
73814;SDS011;62145;55.648;37.602;2023-08-20T12:18:53;8.77;;;4.80;;
73814;SDS011;62145;55.648;37.602;2023-08-20T12:21:19;9.60;;;4.32;;
73814;SDS011;62145;55.648;37.602;2023-08-20T12:23:45;8.27;;;4.07;;
73814;SDS011;62145;55.648;37.602;2023-08-20T12:26:11;11.02;;;4.65;;
73814;SDS011;62145;55.648;37.602;2023-08-20T12:28:37;9.17;;;4.80;;
73814;SDS011;62145;55.648;37.602;2023-08-20T12:31:03;8.03;;;4.37;;
73814;SDS011;62145;55.648;37.602;2023-08-20T12:33:29;9.43;;;4.80;;
73814;SDS011;62145;55.648;37.602;2023-08-20T12:35:55;9.07;;;4.28;;
73814;SDS011;62145;55.648;37.602;2023-08-20T12:38:21;9.43;;;4.45;;
73814;SDS011;62145;55.648;37.602;2023-08-20T12:40:48;7.35;;;4.38;;
73814;SDS011;62145;55.648;37.602;2023-08-20T12:43:14;10.60;;;4.40;;
73814;SDS011;62145;55.648;37.602;2023-08-20T12:45:40;9.77;;;4.80;;
73814;SDS011;62145;55.648;37.602;2023-08-20T12:48:06;9.48;;;4.97;;
73814;SDS011;62145;55.648;37.602;2023-08-20T12:50:33;8.07;;;4.57;;
73814;SDS011;62145;55.648;37.602;2023-08-20T12:52:59;7.43;;;4.60;;
73814;SDS011;62145;55.648;37.602;2023-08-20T12:55:25;10.35;;;4.70;;
73814;SDS011;62145;55.648;37.602;2023-08-20T12:57:57;9.73;;;4.82;;
73814;SDS011;62145;55.648;37.602;2023-08-20T13:00:24;8.10;;;4.90;;
73814;SDS011;62145;55.648;37.602;2023-08-20T13:02:53;8.23;;;4.28;;
73814;SDS011;62145;55.648;37.602;2023-08-20T13:05:22;9.40;;;3.40;;
73814;SDS011;62145;55.648;37.602;2023-08-20T13:07:49;6.68;;;2.05;;
73814;SDS011;62145;55.648;37.602;2023-08-20T13:10:16;5.15;;;2.30;;
73814;SDS011;62145;55.648;37.602;2023-08-20T13:12:45;5.10;;;2.40;;
73814;SDS011;62145;55.648;37.602;2023-08-20T13:15:18;4.30;;;2.20;;
73814;SDS011;62145;55.648;37.602;2023-08-20T13:17:45;4.93;;;2.50;;
73814;SDS011;62145;55.648;37.602;2023-08-20T13:20:13;5.97;;;2.40;;
73814;SDS011;62145;55.648;37.602;2023-08-20T13:22:47;5.00;;;2.72;;
73814;SDS011;62145;55.648;37.602;2023-08-20T13:25:17;5.10;;;2.60;;
73814;SDS011;62145;55.648;37.602;2023-08-20T13:27:45;5.72;;;2.90;;
73814;SDS011;62145;55.648;37.602;2023-08-20T13:30:11;6.83;;;3.00;;
73814;SDS011;62145;55.648;37.602;2023-08-20T13:32:41;6.05;;;2.78;;
73814;SDS011;62145;55.648;37.602;2023-08-20T13:35:07;6.45;;;3.08;;
73814;SDS011;62145;55.648;37.602;2023-08-20T13:37:34;7.05;;;3.13;;
73814;SDS011;62145;55.648;37.602;2023-08-20T13:40:01;6.40;;;3.03;;
73814;SDS011;62145;55.648;37.602;2023-08-20T13:42:30;6.60;;;3.23;;
73814;SDS011;62145;55.648;37.602;2023-08-20T13:44:56;6.93;;;3.33;;
73814;SDS011;62145;55.648;37.602;2023-08-20T13:47:22;7.20;;;3.70;;
73814;SDS011;62145;55.648;37.602;2023-08-20T13:49:49;8.38;;;3.50;;
73814;SDS011;62145;55.648;37.602;2023-08-20T13:52:15;10.32;;;6.25;;
73814;SDS011;62145;55.648;37.602;2023-08-20T13:54:41;7.53;;;3.60;;
73814;SDS011;62145;55.648;37.602;2023-08-20T13:57:07;7.82;;;4.10;;
73814;SDS011;62145;55.648;37.602;2023-08-20T13:59:33;9.82;;;4.65;;
73814;SDS011;62145;55.648;37.602;2023-08-20T14:01:59;7.57;;;4.30;;
73814;SDS011;62145;55.648;37.602;2023-08-20T14:04:25;6.60;;;3.78;;
73814;SDS011;62145;55.648;37.602;2023-08-20T14:06:51;8.03;;;3.80;;
73814;SDS011;62145;55.648;37.602;2023-08-20T14:09:17;8.57;;;4.50;;
73814;SDS011;62145;55.648;37.602;2023-08-20T14:11:47;12.48;;;4.50;;
73814;SDS011;62145;55.648;37.602;2023-08-20T14:14:14;8.63;;;4.50;;
73814;SDS011;62145;55.648;37.602;2023-08-20T14:16:40;9.00;;;5.13;;
73814;SDS011;62145;55.648;37.602;2023-08-20T14:19:06;9.15;;;5.07;;
73814;SDS011;62145;55.648;37.602;2023-08-20T14:21:31;8.75;;;5.85;;
73814;SDS011;62145;55.648;37.602;2023-08-20T14:23:57;7.32;;;4.93;;
73814;SDS011;62145;55.648;37.602;2023-08-20T14:26:23;8.30;;;4.70;;
73814;SDS011;62145;55.648;37.602;2023-08-20T14:28:50;10.07;;;4.63;;
73814;SDS011;62145;55.648;37.602;2023-08-20T14:31:15;7.32;;;4.63;;
73814;SDS011;62145;55.648;37.602;2023-08-20T14:33:41;8.40;;;5.10;;
73814;SDS011;62145;55.648;37.602;2023-08-20T14:36:07;8.70;;;5.80;;
73814;SDS011;62145;55.648;37.602;2023-08-20T14:38:34;7.90;;;5.07;;
73814;SDS011;62145;55.648;37.602;2023-08-20T14:41:00;9.98;;;6.00;;
73814;SDS011;62145;55.648;37.602;2023-08-20T14:43:28;8.57;;;4.60;;
73814;SDS011;62145;55.648;37.602;2023-08-20T14:45:54;7.35;;;5.13;;
73814;SDS011;62145;55.648;37.602;2023-08-20T14:48:24;9.10;;;5.00;;
73814;SDS011;62145;55.648;37.602;2023-08-20T14:50:50;9.02;;;4.93;;
73814;SDS011;62145;55.648;37.602;2023-08-20T14:53:17;7.30;;;4.85;;